sensor_id;sensor_type;location;lat;lon;timestamp;temperature;humidity
64143;DHT22;50437;51.970;5.904;2023-06-24T00:02:17;19.90;99.90
64143;DHT22;50437;51.970;5.904;2023-06-24T00:04:43;19.90;99.90
64143;DHT22;50437;51.970;5.904;2023-06-24T00:07:11;19.90;99.90
64143;DHT22;50437;51.970;5.904;2023-06-24T00:09:55;20.00;99.90
64143;DHT22;50437;51.970;5.904;2023-06-24T00:12:21;20.00;99.90
64143;DHT22;50437;51.970;5.904;2023-06-24T00:14:48;19.90;99.90
64143;DHT22;50437;51.970;5.904;2023-06-24T00:17:14;19.90;99.90
64143;DHT22;50437;51.970;5.904;2023-06-24T00:19:42;19.90;99.90
64143;DHT22;50437;51.970;5.904;2023-06-24T00:22:09;19.80;99.90
64143;DHT22;50437;51.970;5.904;2023-06-24T00:24:36;19.90;99.90
64143;DHT22;50437;51.970;5.904;2023-06-24T00:27:02;19.80;99.90
64143;DHT22;50437;51.970;5.904;2023-06-24T00:29:28;19.80;99.90
64143;DHT22;50437;51.970;5.904;2023-06-24T00:31:54;19.70;99.90
64143;DHT22;50437;51.970;5.904;2023-06-24T00:34:30;19.70;99.90
64143;DHT22;50437;51.970;5.904;2023-06-24T00:36:56;19.70;99.90
64143;DHT22;50437;51.970;5.904;2023-06-24T00:39:24;19.70;99.90
64143;DHT22;50437;51.970;5.904;2023-06-24T00:41:52;19.80;99.90
64143;DHT22;50437;51.970;5.904;2023-06-24T00:44:18;19.80;99.90
64143;DHT22;50437;51.970;5.904;2023-06-24T00:46:45;19.90;99.90
64143;DHT22;50437;51.970;5.904;2023-06-24T00:49:11;19.90;99.90
64143;DHT22;50437;51.970;5.904;2023-06-24T00:51:41;19.90;99.90
64143;DHT22;50437;51.970;5.904;2023-06-24T00:54:16;20.00;99.90
64143;DHT22;50437;51.970;5.904;2023-06-24T00:56:42;20.00;99.90
64143;DHT22;50437;51.970;5.904;2023-06-24T00:59:15;19.90;99.90
64143;DHT22;50437;51.970;5.904;2023-06-24T01:01:42;19.90;99.90
64143;DHT22;50437;51.970;5.904;2023-06-24T01:04:11;20.00;99.90
64143;DHT22;50437;51.970;5.904;2023-06-24T01:06:37;19.90;99.90
64143;DHT22;50437;51.970;5.904;2023-06-24T01:09:10;20.00;99.90
64143;DHT22;50437;51.970;5.904;2023-06-24T01:11:38;20.00;99.90
64143;DHT22;50437;51.970;5.904;2023-06-24T01:14:04;19.90;99.90
64143;DHT22;50437;51.970;5.904;2023-06-24T01:16:45;19.80;99.90
64143;DHT22;50437;51.970;5.904;2023-06-24T01:21:46;19.70;99.90
64143;DHT22;50437;51.970;5.904;2023-06-24T01:32:50;19.60;99.90
64143;DHT22;50437;51.970;5.904;2023-06-24T01:35:21;19.60;99.90
64143;DHT22;50437;51.970;5.904;2023-06-24T01:37:52;19.40;99.90
64143;DHT22;50437;51.970;5.904;2023-06-24T01:40:25;19.40;99.90
64143;DHT22;50437;51.970;5.904;2023-06-24T01:42:53;19.30;99.90
64143;DHT22;50437;51.970;5.904;2023-06-24T01:45:21;19.30;99.90
64143;DHT22;50437;51.970;5.904;2023-06-24T01:47:55;19.20;99.90
64143;DHT22;50437;51.970;5.904;2023-06-24T01:50:23;19.10;99.90
64143;DHT22;50437;51.970;5.904;2023-06-24T01:52:51;18.90;99.90
64143;DHT22;50437;51.970;5.904;2023-06-24T01:55:23;18.90;99.90
64143;DHT22;50437;51.970;5.904;2023-06-24T01:57:50;18.90;99.90
64143;DHT22;50437;51.970;5.904;2023-06-24T02:00:17;18.90;99.90
64143;DHT22;50437;51.970;5.904;2023-06-24T02:02:49;19.00;99.90
64143;DHT22;50437;51.970;5.904;2023-06-24T02:05:17;18.90;99.90
64143;DHT22;50437;51.970;5.904;2023-06-24T02:07:44;19.00;99.90
64143;DHT22;50437;51.970;5.904;2023-06-24T02:10:12;19.10;99.90
64143;DHT22;50437;51.970;5.904;2023-06-24T02:12:38;19.10;99.90
64143;DHT22;50437;51.970;5.904;2023-06-24T02:15:05;19.20;99.90
64143;DHT22;50437;51.970;5.904;2023-06-24T02:17:32;19.10;99.90
64143;DHT22;50437;51.970;5.904;2023-06-24T02:19:59;19.00;99.90
64143;DHT22;50437;51.970;5.904;2023-06-24T02:22:26;19.10;99.90
64143;DHT22;50437;51.970;5.904;2023-06-24T02:24:52;19.10;99.90
64143;DHT22;50437;51.970;5.904;2023-06-24T02:27:19;19.10;99.90
64143;DHT22;50437;51.970;5.904;2023-06-24T02:29:46;19.10;99.90
64143;DHT22;50437;51.970;5.904;2023-06-24T02:32:12;19.10;99.90
64143;DHT22;50437;51.970;5.904;2023-06-24T02:34:39;19.10;99.90
64143;DHT22;50437;51.970;5.904;2023-06-24T02:37:05;19.00;99.90
64143;DHT22;50437;51.970;5.904;2023-06-24T02:39:32;18.90;99.90
64143;DHT22;50437;51.970;5.904;2023-06-24T02:41:59;18.90;99.90
64143;DHT22;50437;51.970;5.904;2023-06-24T02:44:26;18.90;99.90
64143;DHT22;50437;51.970;5.904;2023-06-24T02:46:55;18.80;99.90
64143;DHT22;50437;51.970;5.904;2023-06-24T02:49:23;18.70;99.90
64143;DHT22;50437;51.970;5.904;2023-06-24T02:51:50;18.70;99.90
64143;DHT22;50437;51.970;5.904;2023-06-24T02:54:18;18.70;99.90
64143;DHT22;50437;51.970;5.904;2023-06-24T02:57:16;18.60;99.90
64143;DHT22;50437;51.970;5.904;2023-06-24T03:00:06;18.60;99.90
64143;DHT22;50437;51.970;5.904;2023-06-24T03:02:59;18.50;99.90
64143;DHT22;50437;51.970;5.904;2023-06-24T03:05:26;18.50;99.90
64143;DHT22;50437;51.970;5.904;2023-06-24T03:07:54;18.50;99.90
64143;DHT22;50437;51.970;5.904;2023-06-24T03:10:23;18.50;99.90
64143;DHT22;50437;51.970;5.904;2023-06-24T03:12:49;18.50;99.90
64143;DHT22;50437;51.970;5.904;2023-06-24T03:15:15;18.40;99.90
64143;DHT22;50437;51.970;5.904;2023-06-24T03:17:43;18.40;99.90
64143;DHT22;50437;51.970;5.904;2023-06-24T03:20:09;18.30;99.90
64143;DHT22;50437;51.970;5.904;2023-06-24T03:22:36;18.40;99.90
64143;DHT22;50437;51.970;5.904;2023-06-24T03:25:05;18.50;99.90
64143;DHT22;50437;51.970;5.904;2023-06-24T03:27:31;18.50;99.90
64143;DHT22;50437;51.970;5.904;2023-06-24T03:29:59;18.40;99.90
64143;DHT22;50437;51.970;5.904;2023-06-24T03:32:25;18.50;99.90
64143;DHT22;50437;51.970;5.904;2023-06-24T03:34:52;18.40;99.90
64143;DHT22;50437;51.970;5.904;2023-06-24T03:37:19;18.40;99.90
64143;DHT22;50437;51.970;5.904;2023-06-24T03:39:45;18.30;99.90
64143;DHT22;50437;51.970;5.904;2023-06-24T03:42:11;18.30;99.90
64143;DHT22;50437;51.970;5.904;2023-06-24T03:44:41;18.40;99.90
64143;DHT22;50437;51.970;5.904;2023-06-24T03:47:07;18.40;99.90
64143;DHT22;50437;51.970;5.904;2023-06-24T03:49:33;18.30;99.90
64143;DHT22;50437;51.970;5.904;2023-06-24T03:52:01;18.30;99.90
64143;DHT22;50437;51.970;5.904;2023-06-24T03:54:28;18.40;99.90
64143;DHT22;50437;51.970;5.904;2023-06-24T03:56:54;18.50;99.90
64143;DHT22;50437;51.970;5.904;2023-06-24T03:59:20;18.40;99.90
64143;DHT22;50437;51.970;5.904;2023-06-24T04:01:47;18.40;99.90
64143;DHT22;50437;51.970;5.904;2023-06-24T04:04:13;18.30;99.90
64143;DHT22;50437;51.970;5.904;2023-06-24T04:06:39;18.30;99.90
64143;DHT22;50437;51.970;5.904;2023-06-24T04:09:05;18.30;99.90
64143;DHT22;50437;51.970;5.904;2023-06-24T04:11:32;18.30;99.90
64143;DHT22;50437;51.970;5.904;2023-06-24T04:14:00;18.40;99.90
64143;DHT22;50437;51.970;5.904;2023-06-24T04:16:27;18.50;99.90
64143;DHT22;50437;51.970;5.904;2023-06-24T04:18:53;18.50;99.90
64143;DHT22;50437;51.970;5.904;2023-06-24T04:21:20;18.60;99.90
64143;DHT22;50437;51.970;5.904;2023-06-24T04:23:46;18.70;99.90
64143;DHT22;50437;51.970;5.904;2023-06-24T04:26:14;18.70;99.90
64143;DHT22;50437;51.970;5.904;2023-06-24T04:28:42;18.70;99.90
64143;DHT22;50437;51.970;5.904;2023-06-24T04:31:08;18.70;99.90
64143;DHT22;50437;51.970;5.904;2023-06-24T04:33:38;18.80;99.90
64143;DHT22;50437;51.970;5.904;2023-06-24T04:36:07;18.80;99.90
64143;DHT22;50437;51.970;5.904;2023-06-24T04:38:34;18.90;99.90
64143;DHT22;50437;51.970;5.904;2023-06-24T04:41:01;18.70;99.90
64143;DHT22;50437;51.970;5.904;2023-06-24T04:43:27;18.80;99.90
64143;DHT22;50437;51.970;5.904;2023-06-24T04:45:57;18.80;99.90
64143;DHT22;50437;51.970;5.904;2023-06-24T04:48:24;18.80;99.90
64143;DHT22;50437;51.970;5.904;2023-06-24T04:50:50;18.80;99.90
64143;DHT22;50437;51.970;5.904;2023-06-24T04:53:16;18.80;99.90
64143;DHT22;50437;51.970;5.904;2023-06-24T04:55:43;18.80;99.90
64143;DHT22;50437;51.970;5.904;2023-06-24T04:58:09;18.90;99.90
64143;DHT22;50437;51.970;5.904;2023-06-24T05:00:35;18.90;99.90
64143;DHT22;50437;51.970;5.904;2023-06-24T05:03:01;19.00;99.90
64143;DHT22;50437;51.970;5.904;2023-06-24T05:05:27;19.10;99.90
64143;DHT22;50437;51.970;5.904;2023-06-24T05:07:53;19.10;99.90
64143;DHT22;50437;51.970;5.904;2023-06-24T05:10:24;19.10;99.90
64143;DHT22;50437;51.970;5.904;2023-06-24T05:12:52;19.00;99.90
64143;DHT22;50437;51.970;5.904;2023-06-24T05:15:19;19.00;99.90
64143;DHT22;50437;51.970;5.904;2023-06-24T05:17:46;19.00;99.90
64143;DHT22;50437;51.970;5.904;2023-06-24T05:20:12;19.10;99.90
64143;DHT22;50437;51.970;5.904;2023-06-24T05:22:38;19.00;99.90
64143;DHT22;50437;51.970;5.904;2023-06-24T05:25:04;19.10;99.90
64143;DHT22;50437;51.970;5.904;2023-06-24T05:27:31;19.00;99.90
64143;DHT22;50437;51.970;5.904;2023-06-24T05:29:57;19.00;99.90
64143;DHT22;50437;51.970;5.904;2023-06-24T05:32:25;19.10;99.90
64143;DHT22;50437;51.970;5.904;2023-06-24T05:34:51;19.20;99.90
64143;DHT22;50437;51.970;5.904;2023-06-24T05:37:17;19.20;99.90
64143;DHT22;50437;51.970;5.904;2023-06-24T05:39:43;19.20;99.90
64143;DHT22;50437;51.970;5.904;2023-06-24T05:42:10;19.20;99.90
64143;DHT22;50437;51.970;5.904;2023-06-24T05:44:36;19.20;99.90
64143;DHT22;50437;51.970;5.904;2023-06-24T05:47:02;19.20;99.90
64143;DHT22;50437;51.970;5.904;2023-06-24T05:49:31;19.20;99.90
64143;DHT22;50437;51.970;5.904;2023-06-24T05:51:57;19.20;99.90
64143;DHT22;50437;51.970;5.904;2023-06-24T05:54:25;19.20;99.90
64143;DHT22;50437;51.970;5.904;2023-06-24T05:56:51;19.30;99.90
64143;DHT22;50437;51.970;5.904;2023-06-24T05:59:17;19.40;99.90
64143;DHT22;50437;51.970;5.904;2023-06-24T06:01:43;19.40;99.90
64143;DHT22;50437;51.970;5.904;2023-06-24T06:04:09;19.40;99.90
64143;DHT22;50437;51.970;5.904;2023-06-24T06:06:35;19.40;99.90
64143;DHT22;50437;51.970;5.904;2023-06-24T06:09:01;19.50;99.90
64143;DHT22;50437;51.970;5.904;2023-06-24T06:11:28;19.50;99.90
64143;DHT22;50437;51.970;5.904;2023-06-24T06:13:54;19.50;99.90
64143;DHT22;50437;51.970;5.904;2023-06-24T06:16:21;19.60;99.90
64143;DHT22;50437;51.970;5.904;2023-06-24T06:18:47;19.60;99.90
64143;DHT22;50437;51.970;5.904;2023-06-24T06:21:13;19.70;99.90
64143;DHT22;50437;51.970;5.904;2023-06-24T06:23:39;19.70;99.90
64143;DHT22;50437;51.970;5.904;2023-06-24T06:26:05;20.20;99.90
64143;DHT22;50437;51.970;5.904;2023-06-24T06:28:34;22.50;99.90
64143;DHT22;50437;51.970;5.904;2023-06-24T06:31:01;25.40;99.90
64143;DHT22;50437;51.970;5.904;2023-06-24T06:33:27;27.30;99.90
64143;DHT22;50437;51.970;5.904;2023-06-24T06:35:54;28.50;99.90
64143;DHT22;50437;51.970;5.904;2023-06-24T06:38:20;28.90;98.60
64143;DHT22;50437;51.970;5.904;2023-06-24T06:40:46;29.10;96.30
64143;DHT22;50437;51.970;5.904;2023-06-24T06:43:14;29.20;94.40
64143;DHT22;50437;51.970;5.904;2023-06-24T06:45:40;29.80;94.30
64143;DHT22;50437;51.970;5.904;2023-06-24T06:48:06;30.20;92.10
64143;DHT22;50437;51.970;5.904;2023-06-24T06:50:34;30.60;91.60
64143;DHT22;50437;51.970;5.904;2023-06-24T06:53:00;30.20;91.50
64143;DHT22;50437;51.970;5.904;2023-06-24T06:55:27;30.60;88.70
64143;DHT22;50437;51.970;5.904;2023-06-24T06:57:54;30.30;87.40
64143;DHT22;50437;51.970;5.904;2023-06-24T07:00:21;30.60;86.60
64143;DHT22;50437;51.970;5.904;2023-06-24T07:02:48;30.90;87.30
64143;DHT22;50437;51.970;5.904;2023-06-24T07:05:14;31.50;86.10
64143;DHT22;50437;51.970;5.904;2023-06-24T07:07:42;31.30;87.90
64143;DHT22;50437;51.970;5.904;2023-06-24T07:10:11;31.00;82.80
64143;DHT22;50437;51.970;5.904;2023-06-24T07:12:37;31.70;85.20
64143;DHT22;50437;51.970;5.904;2023-06-24T07:15:03;31.70;80.70
64143;DHT22;50437;51.970;5.904;2023-06-24T07:17:29;31.40;81.40
64143;DHT22;50437;51.970;5.904;2023-06-24T07:19:55;32.20;82.70
64143;DHT22;50437;51.970;5.904;2023-06-24T07:22:22;31.80;77.90
64143;DHT22;50437;51.970;5.904;2023-06-24T07:24:48;31.50;79.30
64143;DHT22;50437;51.970;5.904;2023-06-24T07:27:14;31.80;74.90
64143;DHT22;50437;51.970;5.904;2023-06-24T07:29:40;32.00;73.90
64143;DHT22;50437;51.970;5.904;2023-06-24T07:32:07;31.70;74.50
64143;DHT22;50437;51.970;5.904;2023-06-24T07:34:33;32.70;78.30
64143;DHT22;50437;51.970;5.904;2023-06-24T07:36:59;31.90;72.20
64143;DHT22;50437;51.970;5.904;2023-06-24T07:39:25;32.20;72.60
64143;DHT22;50437;51.970;5.904;2023-06-24T07:41:52;31.30;71.00
64143;DHT22;50437;51.970;5.904;2023-06-24T07:44:18;31.80;73.90
64143;DHT22;50437;51.970;5.904;2023-06-24T07:46:45;32.40;71.50
64143;DHT22;50437;51.970;5.904;2023-06-24T07:49:11;32.00;68.80
64143;DHT22;50437;51.970;5.904;2023-06-24T07:51:37;32.40;70.20
64143;DHT22;50437;51.970;5.904;2023-06-24T07:54:06;32.40;69.50
64143;DHT22;50437;51.970;5.904;2023-06-24T07:56:33;33.00;71.90
64143;DHT22;50437;51.970;5.904;2023-06-24T07:58:59;33.00;63.80
64143;DHT22;50437;51.970;5.904;2023-06-24T08:01:25;32.10;66.50
64143;DHT22;50437;51.970;5.904;2023-06-24T08:03:51;32.90;68.60
64143;DHT22;50437;51.970;5.904;2023-06-24T08:06:17;32.00;66.40
64143;DHT22;50437;51.970;5.904;2023-06-24T08:08:43;32.00;64.90
64143;DHT22;50437;51.970;5.904;2023-06-24T08:11:12;32.80;69.10
64143;DHT22;50437;51.970;5.904;2023-06-24T08:13:38;33.20;66.00
64143;DHT22;50437;51.970;5.904;2023-06-24T08:16:05;33.00;65.90
64143;DHT22;50437;51.970;5.904;2023-06-24T08:18:31;33.70;65.90
64143;DHT22;50437;51.970;5.904;2023-06-24T08:20:59;32.60;65.10
64143;DHT22;50437;51.970;5.904;2023-06-24T08:23:25;33.20;67.90
64143;DHT22;50437;51.970;5.904;2023-06-24T08:25:51;32.60;64.70
64143;DHT22;50437;51.970;5.904;2023-06-24T08:28:17;32.60;64.50
64143;DHT22;50437;51.970;5.904;2023-06-24T08:30:43;33.50;66.40
64143;DHT22;50437;51.970;5.904;2023-06-24T08:33:09;32.50;61.60
64143;DHT22;50437;51.970;5.904;2023-06-24T08:35:35;32.30;64.40
64143;DHT22;50437;51.970;5.904;2023-06-24T08:38:01;32.40;64.60
64143;DHT22;50437;51.970;5.904;2023-06-24T08:40:30;32.80;67.40
64143;DHT22;50437;51.970;5.904;2023-06-24T08:42:57;32.40;64.50
64143;DHT22;50437;51.970;5.904;2023-06-24T08:45:24;32.00;59.40
64143;DHT22;50437;51.970;5.904;2023-06-24T08:47:50;32.00;63.90
64143;DHT22;50437;51.970;5.904;2023-06-24T08:50:16;32.10;67.70
64143;DHT22;50437;51.970;5.904;2023-06-24T08:52:48;32.40;65.90
64143;DHT22;50437;51.970;5.904;2023-06-24T08:55:16;32.40;59.30
64143;DHT22;50437;51.970;5.904;2023-06-24T08:57:42;32.20;60.60
64143;DHT22;50437;51.970;5.904;2023-06-24T09:00:09;32.40;62.60
64143;DHT22;50437;51.970;5.904;2023-06-24T09:02:36;32.30;61.50
64143;DHT22;50437;51.970;5.904;2023-06-24T09:05:04;32.10;64.70
64143;DHT22;50437;51.970;5.904;2023-06-24T09:07:30;32.20;59.50
64143;DHT22;50437;51.970;5.904;2023-06-24T09:09:57;31.80;63.10
64143;DHT22;50437;51.970;5.904;2023-06-24T09:12:26;31.30;64.50
64143;DHT22;50437;51.970;5.904;2023-06-24T09:14:52;31.00;63.50
64143;DHT22;50437;51.970;5.904;2023-06-24T09:17:19;31.60;66.20
64143;DHT22;50437;51.970;5.904;2023-06-24T09:19:50;31.40;63.30
64143;DHT22;50437;51.970;5.904;2023-06-24T09:22:17;30.70;70.40
64143;DHT22;50437;51.970;5.904;2023-06-24T09:24:44;30.30;67.70
64143;DHT22;50437;51.970;5.904;2023-06-24T09:27:13;30.10;66.90
64143;DHT22;50437;51.970;5.904;2023-06-24T09:29:41;30.10;60.50
64143;DHT22;50437;51.970;5.904;2023-06-24T09:32:08;29.90;61.80
64143;DHT22;50437;51.970;5.904;2023-06-24T09:34:34;30.60;68.70
64143;DHT22;50437;51.970;5.904;2023-06-24T09:37:00;31.30;67.30
64143;DHT22;50437;51.970;5.904;2023-06-24T09:39:27;31.20;64.60
64143;DHT22;50437;51.970;5.904;2023-06-24T09:41:59;30.70;65.20
64143;DHT22;50437;51.970;5.904;2023-06-24T09:44:26;30.40;65.30
64143;DHT22;50437;51.970;5.904;2023-06-24T09:46:53;30.80;64.20
64143;DHT22;50437;51.970;5.904;2023-06-24T09:49:19;30.80;61.50
64143;DHT22;50437;51.970;5.904;2023-06-24T09:51:46;31.80;66.40
64143;DHT22;50437;51.970;5.904;2023-06-24T09:54:14;31.80;58.90
64143;DHT22;50437;51.970;5.904;2023-06-24T09:56:45;31.30;58.60
64143;DHT22;50437;51.970;5.904;2023-06-24T09:59:13;31.30;61.60
64143;DHT22;50437;51.970;5.904;2023-06-24T10:01:41;31.30;63.80
64143;DHT22;50437;51.970;5.904;2023-06-24T10:04:07;31.80;61.60
64143;DHT22;50437;51.970;5.904;2023-06-24T10:06:34;32.50;58.10
64143;DHT22;50437;51.970;5.904;2023-06-24T10:09:00;32.00;58.60
64143;DHT22;50437;51.970;5.904;2023-06-24T10:11:27;32.50;56.80
64143;DHT22;50437;51.970;5.904;2023-06-24T10:13:53;33.20;62.00
64143;DHT22;50437;51.970;5.904;2023-06-24T10:16:19;33.10;56.60
64143;DHT22;50437;51.970;5.904;2023-06-24T10:18:48;33.00;56.70
64143;DHT22;50437;51.970;5.904;2023-06-24T10:21:15;32.30;56.70
64143;DHT22;50437;51.970;5.904;2023-06-24T10:26:27;33.50;59.00
64143;DHT22;50437;51.970;5.904;2023-06-24T10:39:44;31.90;60.50
64143;DHT22;50437;51.970;5.904;2023-06-24T10:42:27;31.10;57.60
64143;DHT22;50437;51.970;5.904;2023-06-24T10:44:54;31.60;60.30
64143;DHT22;50437;51.970;5.904;2023-06-24T10:47:21;31.50;59.20
64143;DHT22;50437;51.970;5.904;2023-06-24T10:49:48;31.20;61.90
64143;DHT22;50437;51.970;5.904;2023-06-24T10:52:14;32.80;62.00
64143;DHT22;50437;51.970;5.904;2023-06-24T10:54:43;32.60;59.40
64143;DHT22;50437;51.970;5.904;2023-06-24T10:57:10;32.80;57.50
64143;DHT22;50437;51.970;5.904;2023-06-24T10:59:40;33.30;60.60
64143;DHT22;50437;51.970;5.904;2023-06-24T11:02:14;33.00;56.30
64143;DHT22;50437;51.970;5.904;2023-06-24T11:07:13;33.60;57.70
64143;DHT22;50437;51.970;5.904;2023-06-24T11:09:42;33.10;57.50
64143;DHT22;50437;51.970;5.904;2023-06-24T11:12:13;32.80;58.70
64143;DHT22;50437;51.970;5.904;2023-06-24T11:14:39;32.50;60.50
64143;DHT22;50437;51.970;5.904;2023-06-24T11:17:06;32.70;61.90
64143;DHT22;50437;51.970;5.904;2023-06-24T11:19:32;32.80;60.40
64143;DHT22;50437;51.970;5.904;2023-06-24T11:21:59;33.10;61.90
64143;DHT22;50437;51.970;5.904;2023-06-24T11:24:27;32.70;58.80
64143;DHT22;50437;51.970;5.904;2023-06-24T11:26:53;31.80;60.70
64143;DHT22;50437;51.970;5.904;2023-06-24T11:29:19;31.70;62.30
64143;DHT22;50437;51.970;5.904;2023-06-24T11:31:45;31.60;60.20
64143;DHT22;50437;51.970;5.904;2023-06-24T11:34:12;32.00;61.00
64143;DHT22;50437;51.970;5.904;2023-06-24T11:36:38;31.70;59.30
64143;DHT22;50437;51.970;5.904;2023-06-24T11:39:04;31.60;59.20
64143;DHT22;50437;51.970;5.904;2023-06-24T11:41:30;32.20;64.70
64143;DHT22;50437;51.970;5.904;2023-06-24T11:43:59;31.70;59.70
64143;DHT22;50437;51.970;5.904;2023-06-24T11:46:29;31.10;62.80
64143;DHT22;50437;51.970;5.904;2023-06-24T11:49:06;30.40;61.30
64143;DHT22;50437;51.970;5.904;2023-06-24T11:51:32;30.50;61.10
64143;DHT22;50437;51.970;5.904;2023-06-24T11:54:00;31.30;61.40
64143;DHT22;50437;51.970;5.904;2023-06-24T11:56:33;31.30;63.40
64143;DHT22;50437;51.970;5.904;2023-06-24T11:59:00;30.70;65.40
64143;DHT22;50437;51.970;5.904;2023-06-24T12:01:32;30.50;60.80
64143;DHT22;50437;51.970;5.904;2023-06-24T12:04:11;30.70;63.50
64143;DHT22;50437;51.970;5.904;2023-06-24T12:06:39;30.80;61.30
64143;DHT22;50437;51.970;5.904;2023-06-24T12:09:07;31.20;59.50
64143;DHT22;50437;51.970;5.904;2023-06-24T12:11:33;30.30;60.70
64143;DHT22;50437;51.970;5.904;2023-06-24T12:13:59;30.40;60.30
64143;DHT22;50437;51.970;5.904;2023-06-24T12:16:25;31.00;65.80
64143;DHT22;50437;51.970;5.904;2023-06-24T12:18:55;31.00;62.90
64143;DHT22;50437;51.970;5.904;2023-06-24T12:21:21;31.00;63.90
64143;DHT22;50437;51.970;5.904;2023-06-24T12:23:47;31.00;62.10
64143;DHT22;50437;51.970;5.904;2023-06-24T12:26:14;31.30;65.70
64143;DHT22;50437;51.970;5.904;2023-06-24T12:28:43;31.10;62.20
64143;DHT22;50437;51.970;5.904;2023-06-24T12:31:11;31.30;62.20
64143;DHT22;50437;51.970;5.904;2023-06-24T12:33:37;30.80;64.10
64143;DHT22;50437;51.970;5.904;2023-06-24T12:36:04;31.10;62.60
64143;DHT22;50437;51.970;5.904;2023-06-24T12:38:30;30.50;62.40
64143;DHT22;50437;51.970;5.904;2023-06-24T12:40:57;31.20;62.80
64143;DHT22;50437;51.970;5.904;2023-06-24T12:43:23;30.50;61.70
64143;DHT22;50437;51.970;5.904;2023-06-24T12:45:49;30.10;63.60
64143;DHT22;50437;51.970;5.904;2023-06-24T12:48:16;30.70;67.60
64143;DHT22;50437;51.970;5.904;2023-06-24T12:50:43;30.70;66.40
64143;DHT22;50437;51.970;5.904;2023-06-24T12:53:09;29.70;64.40
64143;DHT22;50437;51.970;5.904;2023-06-24T12:55:40;29.50;65.00
64143;DHT22;50437;51.970;5.904;2023-06-24T12:58:06;29.60;64.10
64143;DHT22;50437;51.970;5.904;2023-06-24T13:00:33;30.10;64.10
64143;DHT22;50437;51.970;5.904;2023-06-24T13:03:00;30.30;65.60
64143;DHT22;50437;51.970;5.904;2023-06-24T13:05:26;30.60;61.90
64143;DHT22;50437;51.970;5.904;2023-06-24T13:07:52;30.40;62.50
64143;DHT22;50437;51.970;5.904;2023-06-24T13:10:20;30.40;61.30
64143;DHT22;50437;51.970;5.904;2023-06-24T13:12:47;30.80;63.20
64143;DHT22;50437;51.970;5.904;2023-06-24T13:15:13;30.70;65.90
64143;DHT22;50437;51.970;5.904;2023-06-24T13:17:41;30.80;61.30
64143;DHT22;50437;51.970;5.904;2023-06-24T13:20:07;30.80;61.20
64143;DHT22;50437;51.970;5.904;2023-06-24T13:22:34;31.30;68.60
64143;DHT22;50437;51.970;5.904;2023-06-24T13:25:01;31.00;60.90
64143;DHT22;50437;51.970;5.904;2023-06-24T13:27:27;31.10;61.80
64143;DHT22;50437;51.970;5.904;2023-06-24T13:29:53;31.10;65.40
64143;DHT22;50437;51.970;5.904;2023-06-24T13:32:22;31.10;62.70
64143;DHT22;50437;51.970;5.904;2023-06-24T13:34:49;31.20;62.40
64143;DHT22;50437;51.970;5.904;2023-06-24T13:37:15;30.80;63.70
64143;DHT22;50437;51.970;5.904;2023-06-24T13:39:41;30.60;62.50
64143;DHT22;50437;51.970;5.904;2023-06-24T13:42:07;30.70;61.50
64143;DHT22;50437;51.970;5.904;2023-06-24T13:44:34;30.80;64.00
64143;DHT22;50437;51.970;5.904;2023-06-24T13:47:00;31.00;64.70
64143;DHT22;50437;51.970;5.904;2023-06-24T13:49:26;31.10;60.60
64143;DHT22;50437;51.970;5.904;2023-06-24T13:51:52;30.80;65.60
64143;DHT22;50437;51.970;5.904;2023-06-24T13:54:18;30.80;62.10
64143;DHT22;50437;51.970;5.904;2023-06-24T13:56:46;31.20;64.10
64143;DHT22;50437;51.970;5.904;2023-06-24T13:59:12;31.40;62.90
64143;DHT22;50437;51.970;5.904;2023-06-24T14:01:38;31.20;62.20
64143;DHT22;50437;51.970;5.904;2023-06-24T14:04:04;30.80;59.70
64143;DHT22;50437;51.970;5.904;2023-06-24T14:06:31;30.60;62.00
64143;DHT22;50437;51.970;5.904;2023-06-24T14:08:57;30.80;60.70
64143;DHT22;50437;51.970;5.904;2023-06-24T14:11:23;30.70;62.30
64143;DHT22;50437;51.970;5.904;2023-06-24T14:13:50;30.80;61.30
64143;DHT22;50437;51.970;5.904;2023-06-24T14:16:16;30.90;65.50
64143;DHT22;50437;51.970;5.904;2023-06-24T14:18:46;31.10;65.50
64143;DHT22;50437;51.970;5.904;2023-06-24T14:21:12;31.20;64.90
64143;DHT22;50437;51.970;5.904;2023-06-24T14:23:39;31.00;61.10
64143;DHT22;50437;51.970;5.904;2023-06-24T14:26:06;31.30;63.60
64143;DHT22;50437;51.970;5.904;2023-06-24T14:28:32;30.90;61.50
64143;DHT22;50437;51.970;5.904;2023-06-24T14:30:58;31.20;61.00
64143;DHT22;50437;51.970;5.904;2023-06-24T14:33:24;31.10;61.60
64143;DHT22;50437;51.970;5.904;2023-06-24T14:35:50;31.10;64.40
64143;DHT22;50437;51.970;5.904;2023-06-24T14:38:17;31.20;61.20
64143;DHT22;50437;51.970;5.904;2023-06-24T14:40:43;31.30;66.70
64143;DHT22;50437;51.970;5.904;2023-06-24T14:43:09;31.40;63.90
64143;DHT22;50437;51.970;5.904;2023-06-24T14:45:36;31.70;63.70
64143;DHT22;50437;51.970;5.904;2023-06-24T14:48:02;31.60;63.80
64143;DHT22;50437;51.970;5.904;2023-06-24T14:50:28;31.50;61.20
64143;DHT22;50437;51.970;5.904;2023-06-24T14:52:54;30.70;63.60
64143;DHT22;50437;51.970;5.904;2023-06-24T14:55:20;30.20;63.70
64143;DHT22;50437;51.970;5.904;2023-06-24T14:57:46;30.40;65.60
64143;DHT22;50437;51.970;5.904;2023-06-24T15:00:12;30.80;65.20
64143;DHT22;50437;51.970;5.904;2023-06-24T15:02:42;31.30;66.10
64143;DHT22;50437;51.970;5.904;2023-06-24T15:05:08;31.00;63.40
64143;DHT22;50437;51.970;5.904;2023-06-24T15:07:35;30.60;64.60
64143;DHT22;50437;51.970;5.904;2023-06-24T15:10:01;30.00;64.20
64143;DHT22;50437;51.970;5.904;2023-06-24T15:12:27;29.70;64.70
64143;DHT22;50437;51.970;5.904;2023-06-24T15:14:53;29.60;67.70
64143;DHT22;50437;51.970;5.904;2023-06-24T15:17:19;29.80;65.90
64143;DHT22;50437;51.970;5.904;2023-06-24T15:19:46;30.10;64.50
64143;DHT22;50437;51.970;5.904;2023-06-24T15:22:12;30.20;65.50
64143;DHT22;50437;51.970;5.904;2023-06-24T15:24:38;30.00;66.50
64143;DHT22;50437;51.970;5.904;2023-06-24T15:27:04;30.30;66.80
64143;DHT22;50437;51.970;5.904;2023-06-24T15:29:30;30.40;66.90
64143;DHT22;50437;51.970;5.904;2023-06-24T15:31:56;30.40;68.10
64143;DHT22;50437;51.970;5.904;2023-06-24T15:34:22;30.40;66.80
64143;DHT22;50437;51.970;5.904;2023-06-24T15:36:48;30.30;65.90
64143;DHT22;50437;51.970;5.904;2023-06-24T15:39:14;30.20;66.10
64143;DHT22;50437;51.970;5.904;2023-06-24T15:41:41;30.20;66.30
64143;DHT22;50437;51.970;5.904;2023-06-24T15:44:11;30.00;65.30
64143;DHT22;50437;51.970;5.904;2023-06-24T15:46:38;29.90;67.30
64143;DHT22;50437;51.970;5.904;2023-06-24T15:49:04;29.60;67.30
64143;DHT22;50437;51.970;5.904;2023-06-24T15:51:30;29.70;68.20
64143;DHT22;50437;51.970;5.904;2023-06-24T15:53:57;29.90;67.20
64143;DHT22;50437;51.970;5.904;2023-06-24T15:56:24;30.10;67.30
64143;DHT22;50437;51.970;5.904;2023-06-24T15:58:54;30.30;68.40